Terminal Aerodrome Forecast
Issued by NWS

Home | Current Version | Previous Version | Graphics & Text | Print | Product List | Glossary On
Versions: 1 2 3 4 5 6 7 8 9 10 11 12 13 14 15
554
FTUS43 KBIS 202336
TAFDIK
TAF
KDIK 202336Z 2100/2124 22016G24KT P6SM FEW300
     FM210200 18011KT P6SM SCT250
     FM210800 20006KT P6SM SCT100 BKN150
     FM211100 26005KT P6SM BKN120
     FM211500 31011KT P6SM SCT120 SCT180=

USA.gov is the U.S. government's official web portal to all federal, state and local government web resources and services.